SHASTA DAM (USBR) (SHA)

Elevation: 1067' · SACRAMENTO R basin · Operator: US Bureau of Reclamation

Provisional data, subject to change.
Query executed Monday at 12:48:53   clock

Select a sensor type for a plot of data.
Note: Reservoir Flows are daily averages.

Earlier

Date RES ELE    STORAGE    RES CHG    TOC STO    ABV TOC    OUTFLOW    INFLOW    EVAP    FNF    RIV REL    PPT INC    RAIN    SPILL    DIS PWR   
 FEET   AF   AF   AF   AF   CFS   CFS   CFS   CFS   CFS   INCHES   INCHES   CFS   CFS  
07/31/2016 1030.43 3544374 -13937 4552100 -1007726 8789 2061 298 2657 0 0.00 65.43 0 8789
08/01/2016 1029.86 3529948 -14426 4552100 -1022152 9008 2040 305 2494 0 0.00 65.43 0 9008
08/02/2016 1029.34 3516837 -13111 4552100 -1035263 8975 2699 334 2838 0 0.00 65.43 0 8975
08/03/2016 1028.77 3502493 -14344 4552100 -1049607 9065 2129 296 2556 0 0.00 65.43 0 9065
08/04/2016 1028.29 3490449 -12044 4552100 -1061651 8937 3153 288 2459 0 0.00 65.43 0 8937
08/05/2016 1027.81 3478430 -12019 4552100 -1073670 9250 3493 302 2870 0 0.00 65.43 0 9250
08/06/2016 1027.27 3464950 -13480 4552100 -1087150 9070 2435 161 2384 0 0.00 65.43 0 9070
08/07/2016 1026.77 3452497 -12453 4552100 -1099603 8876 2832 234 2641 0 0.00 65.43 0 8876
08/08/2016 1026.22 3438836 -13661 4552100 -1113264 9138 2477 226 2412 0 0.00 65.43 0 9138
08/09/2016 1025.65 3424720 -14116 4552100 -1127380 9175 2378 320 2514 0 0.00 65.43 0 9175
08/10/2016 1025.08 3410632 -14088 4552100 -1141468 9158 2295 240 2534 0 0.00 65.43 0 9158
08/11/2016 1024.53 3397096 -13536 4552100 -1155004 8818 2248 254 2253 e 0 0.00 65.43 0 8818
08/12/2016 1023.96 3383083 -14013 4552100 -1169017 9132 2313 246 2253 e 0 0.00 65.43 0 9132
08/13/2016 1023.31 3367180 -15903 4552100 -1184920 9505 1710 223 2508 0 0.00 65.43 0 9505
08/14/2016 1022.71 3352535 -14645 4552100 -1199565 8892 1760 251 2418 0 0.00 65.43 0 8892
08/15/2016 1022.29 3342311 -10224 4552100 -1209789 8472 3654 337 2823 0 0.00 65.43 0 8472
08/16/2016 1021.78 3329922 -12389 4552100 -1222178 9157 3240 329 2523 0 0.00 65.43 0 9157
08/17/2016 1021.30 3318294 -11628 4552100 -1233806 9084 3543 321 2578 0 0.00 65.43 0 9084
08/18/2016 1020.77 3305484 -12810 4552100 -1246616 8942 2783 299 2783 0 0.00 65.43 0 8942
08/19/2016 1020.24 3292713 -12771 4552100 -1259387 9026 2857 270 2327 0 0.00 65.43 0 9026
08/20/2016 1019.66 3278746 -13967 4552100 -1273354 8560 1730 212 2462 0 0.00 65.43 0 8560
08/21/2016 1019.03 3263584 -15162 4552100 -1288516 9050 1674 268 2726 0 0.00 65.43 0 9050
08/22/2016 1018.49 3250652 -12932 4552100 -1301448 8699 2383 204 2042 0 0.00 65.43 0 8699
08/23/2016 1018.04 3239878 -10774 4552100 -1312222 8367 3202 267 2958 0 0.00 65.43 0 8367
08/24/2016 1017.52 3227485 -12393 4552100 -1324615 8759 2763 252 2661 0 0.00 65.43 0 8759
08/25/2016 1016.97 3214386 -13099 4552100 -1337714 8921 2561 244 2204 0 0.00 65.43 0 8921
08/26/2016 1016.46 3202301 -12085 4552100 -1349799 9396 3540 237 2624 0 0.00 65.43 0 9396
08/27/2016 1015.86 3188100 -14201 4552100 -1364000 9334 2334 160 2502 0 0.00 65.43 0 9334
08/28/2016 1015.22 3173008 -15092 4552100 -1379092 9478 2077 208 2316 0 0.00 65.43 0 9478
08/29/2016 -- -- -- -- -- -- -- -- -- -- -- -- -- --

Later | Latest

Warning! This data is preliminary and subject to revision.

Show SHA Map | Plot SHA Data | 1 Month SHA Data | Real-Time SHA Data | SHA Info